CMM921 SKBQ-SCEL
Flight info
| Callsign | CMM921 |
|---|---|
| Flight time | N/A |
| Altitude | 33000 |
| Route | VOVLU2D VOVLU UW3 MGN UL305 ATANA/N0465F350 UL305 GIR DCT ROLUS/N0462F340 UL300 IQT/N0462F350 UL300 TOMIX/N0456F370 UL300 ARI DCT LOBAG UQ803 SIMOK SIMOK7B |
| Aircraft | B38M/M-SDE1FGHILORVWXY/HB1 |
Departure
| Time | 2026-04-29 14:53 |
|---|---|
| Airport | Ernesto Cortissoz International Airport (SKBQ) |
Arrival
| Time | N/A |
|---|---|
| Airport | Comodoro Arturo Merino Benítez International Airport (SCEL) |
| Time | Latitude | Longitude | Altitude | Speed | Heading |
|---|---|---|---|---|---|
| 2026-04-29 14:48 | 10.88337 | -74.78368 | 96 ft | 10 kts | 220° |
| 2026-04-29 14:48 | 10.88285 | -74.78413 | 97 ft | 10 kts | 220° |
| 2026-04-29 14:48 | 10.88234 | -74.78456 | 98 ft | 9 kts | 220° |
| 2026-04-29 14:49 | 10.88186 | -74.78496 | 100 ft | 9 kts | 220° |
| 2026-04-29 14:49 | 10.88139 | -74.78536 | 101 ft | 9 kts | 220° |
| 2026-04-29 14:49 | 10.88093 | -74.78575 | 100 ft | 8 kts | 220° |
| 2026-04-29 14:49 | 10.88049 | -74.78613 | 101 ft | 8 kts | 220° |
| 2026-04-29 14:50 | 10.88007 | -74.78650 | 102 ft | 8 kts | 220° |
| 2026-04-29 14:50 | 10.87966 | -74.78685 | 102 ft | 8 kts | 220° |
| 2026-04-29 14:50 | 10.87927 | -74.78720 | 104 ft | 7 kts | 220° |
| 2026-04-29 14:50 | 10.87888 | -74.78753 | 104 ft | 7 kts | 224° |
| 2026-04-29 14:51 | 10.87865 | -74.78810 | 104 ft | 11 kts | 261° |
| 2026-04-29 14:51 | 10.87874 | -74.78897 | 106 ft | 13 kts | 298° |
| 2026-04-29 14:51 | 10.87917 | -74.78954 | 106 ft | 5 kts | 310° |
| 2026-04-29 14:51 | 10.87939 | -74.78961 | 106 ft | 4 kts | 16° |
| 2026-04-29 14:52 | 10.87949 | -74.78954 | 106 ft | 0 kts | 39° |
| 2026-04-29 14:52 | 10.87956 | -74.78949 | 106 ft | 13 kts | 39° |
| 2026-04-29 14:52 | 10.88226 | -74.78718 | 103 ft | 87 kts | 40° |
| 2026-04-29 14:52 | 10.88861 | -74.78173 | 89 ft | 149 kts | 40° |
| 2026-04-29 14:53 | 10.89777 | -74.77392 | 240 ft | 184 kts | 40° |
| 2026-04-29 14:53 | 10.90780 | -74.76561 | 950 ft | 193 kts | 37° |
| 2026-04-29 14:53 | 10.91978 | -74.75902 | 1625 ft | 202 kts | 18° |
| 2026-04-29 14:53 | 10.93417 | -74.75537 | 2096 ft | 226 kts | 12° |
| 2026-04-29 14:54 | 10.95045 | -74.75305 | 2583 ft | 246 kts | 4° |
| 2026-04-29 14:54 | 10.96804 | -74.75443 | 3232 ft | 263 kts | 351° |
| 2026-04-29 14:54 | 10.98618 | -74.76008 | 3802 ft | 283 kts | 339° |
| 2026-04-29 14:54 | 11.00437 | -74.76921 | 4444 ft | 298 kts | 332° |
| 2026-04-29 14:55 | 11.02138 | -74.78141 | 5339 ft | 303 kts | 317° |
| 2026-04-29 14:55 | 11.03279 | -74.79958 | 5894 ft | 318 kts | 287° |
| 2026-04-29 14:55 | 11.03456 | -74.82209 | 6572 ft | 325 kts | 262° |
| 2026-04-29 14:55 | 11.02679 | -74.84366 | 7247 ft | 329 kts | 233° |
| 2026-04-29 14:56 | 11.01000 | -74.85918 | 7980 ft | 329 kts | 208° |
| 2026-04-29 14:56 | 10.98881 | -74.86782 | 8685 ft | 329 kts | 189° |
| 2026-04-29 14:56 | 10.96608 | -74.86839 | 9392 ft | 328 kts | 168° |
| 2026-04-29 14:56 | 10.94345 | -74.86419 | 10068 ft | 333 kts | 169° |
| 2026-04-29 14:57 | 10.92043 | -74.86038 | 10760 ft | 337 kts | 169° |
| 2026-04-29 14:57 | 10.89713 | -74.85658 | 11440 ft | 340 kts | 169° |
| 2026-04-29 14:57 | 10.87365 | -74.85277 | 12113 ft | 343 kts | 170° |
| 2026-04-29 14:57 | 10.85022 | -74.84898 | 12738 ft | 347 kts | 170° |
| 2026-04-29 14:58 | 10.82570 | -74.84774 | 13378 ft | 350 kts | 181° |
| 2026-04-29 14:58 | 10.80149 | -74.84827 | 13963 ft | 354 kts | 180° |
| 2026-04-29 14:58 | 10.77680 | -74.84846 | 14572 ft | 356 kts | 179° |
| 2026-04-29 14:58 | 10.75189 | -74.84851 | 15097 ft | 360 kts | 179° |
| 2026-04-29 14:59 | 10.72680 | -74.84847 | 15659 ft | 362 kts | 179° |
| 2026-04-29 14:59 | 10.70147 | -74.84839 | 16177 ft | 365 kts | 179° |
| 2026-04-29 14:59 | 10.67593 | -74.84828 | 16686 ft | 368 kts | 179° |
| 2026-04-29 14:59 | 10.65025 | -74.84816 | 17183 ft | 370 kts | 179° |
| 2026-04-29 15:00 | 10.62439 | -74.84804 | 17661 ft | 373 kts | 179° |
| 2026-04-29 15:00 | 10.59833 | -74.84792 | 18120 ft | 376 kts | 179° |
| 2026-04-29 15:00 | 10.57207 | -74.84780 | 18586 ft | 378 kts | 179° |
| 2026-04-29 15:00 | 10.54563 | -74.84768 | 18990 ft | 381 kts | 179° |
| 2026-04-29 15:01 | 10.51903 | -74.84755 | 19435 ft | 383 kts | 179° |
| 2026-04-29 15:01 | 10.49224 | -74.84743 | 19835 ft | 386 kts | 180° |
| 2026-04-29 15:01 | 10.46530 | -74.84730 | 20229 ft | 388 kts | 180° |
| 2026-04-29 15:01 | 10.43821 | -74.84718 | 20618 ft | 391 kts | 180° |
| 2026-04-29 15:02 | 10.41129 | -74.84705 | 20985 ft | 393 kts | 180° |
| 2026-04-29 15:02 | 10.38388 | -74.84692 | 21353 ft | 395 kts | 180° |
| 2026-04-29 15:02 | 10.35626 | -74.84679 | 21718 ft | 398 kts | 180° |
| 2026-04-29 15:02 | 10.32852 | -74.84667 | 22072 ft | 400 kts | 180° |
| 2026-04-29 15:03 | 10.30064 | -74.84654 | 22405 ft | 402 kts | 180° |
| 2026-04-29 15:03 | 10.27258 | -74.84641 | 22744 ft | 404 kts | 180° |
| 2026-04-29 15:03 | 10.24435 | -74.84627 | 23067 ft | 406 kts | 180° |
| 2026-04-29 15:03 | 10.21606 | -74.84614 | 23392 ft | 408 kts | 180° |
| 2026-04-29 15:04 | 10.18764 | -74.84601 | 23713 ft | 410 kts | 180° |
| 2026-04-29 15:04 | 10.15904 | -74.84588 | 24010 ft | 412 kts | 180° |
| 2026-04-29 15:04 | 10.13032 | -74.84574 | 24296 ft | 414 kts | 180° |
| 2026-04-29 15:04 | 10.10148 | -74.84561 | 24588 ft | 416 kts | 180° |
| 2026-04-29 15:05 | 10.07248 | -74.84548 | 24881 ft | 417 kts | 180° |
| 2026-04-29 15:05 | 10.04337 | -74.84534 | 25155 ft | 419 kts | 180° |
| 2026-04-29 15:05 | 10.01411 | -74.84521 | 25421 ft | 421 kts | 180° |
| 2026-04-29 15:05 | 9.98469 | -74.84507 | 25704 ft | 423 kts | 180° |
| 2026-04-29 15:06 | 9.95513 | -74.84492 | 25934 ft | 426 kts | 180° |
| 2026-04-29 15:06 | 9.92576 | -74.84479 | 26203 ft | 427 kts | 180° |
| 2026-04-29 15:06 | 9.89559 | -74.84465 | 26462 ft | 429 kts | 180° |
| 2026-04-29 15:06 | 9.86608 | -74.84451 | 26722 ft | 430 kts | 180° |
| 2026-04-29 15:07 | 9.83605 | -74.84437 | 26957 ft | 433 kts | 180° |
| 2026-04-29 15:07 | 9.80590 | -74.84424 | 27207 ft | 434 kts | 181° |
| 2026-04-29 15:07 | 9.77562 | -74.84410 | 27457 ft | 436 kts | 181° |
| 2026-04-29 15:07 | 9.74524 | -74.84395 | 27694 ft | 438 kts | 181° |
| 2026-04-29 15:08 | 9.71469 | -74.84381 | 27931 ft | 439 kts | 181° |
| 2026-04-29 15:08 | 9.68404 | -74.84366 | 28155 ft | 441 kts | 180° |
| 2026-04-29 15:08 | 9.65332 | -74.84352 | 28421 ft | 441 kts | 180° |
| 2026-04-29 15:08 | 9.62258 | -74.84338 | 28666 ft | 442 kts | 180° |
| 2026-04-29 15:09 | 9.59178 | -74.84324 | 28871 ft | 444 kts | 180° |
| 2026-04-29 15:09 | 9.56080 | -74.84310 | 29090 ft | 446 kts | 180° |
| 2026-04-29 15:09 | 9.52972 | -74.84295 | 29319 ft | 447 kts | 180° |
| 2026-04-29 15:09 | 9.49857 | -74.84283 | 29530 ft | 448 kts | 180° |
| 2026-04-29 15:10 | 9.46733 | -74.84272 | 29727 ft | 449 kts | 180° |
| 2026-04-29 15:10 | 9.43600 | -74.84260 | 29922 ft | 451 kts | 180° |
| 2026-04-29 15:10 | 9.40448 | -74.84249 | 30120 ft | 453 kts | 180° |
| 2026-04-29 15:10 | 9.37334 | -74.84238 | 30311 ft | 454 kts | 180° |
| 2026-04-29 15:11 | 9.34175 | -74.84227 | 30500 ft | 455 kts | 180° |
| 2026-04-29 15:11 | 9.31002 | -74.84216 | 30693 ft | 456 kts | 180° |
| 2026-04-29 15:11 | 9.27826 | -74.84205 | 30902 ft | 457 kts | 180° |
| 2026-04-29 15:11 | 9.24643 | -74.84193 | 31076 ft | 458 kts | 180° |
| 2026-04-29 15:12 | 9.21443 | -74.84182 | 31244 ft | 460 kts | 180° |
| 2026-04-29 15:12 | 9.19307 | -74.84175 | 31368 ft | 460 kts | 180° |
| 2026-04-29 15:12 | 9.15039 | -74.84159 | 31638 ft | 461 kts | 180° |
| 2026-04-29 15:12 | 9.11815 | -74.84148 | 31888 ft | 460 kts | 180° |
| 2026-04-29 15:13 | 9.08647 | -74.84137 | 32136 ft | 460 kts | 180° |
| 2026-04-29 15:13 | 9.05448 | -74.84126 | 32388 ft | 459 kts | 180° |
| 2026-04-29 15:13 | 9.02250 | -74.84114 | 32619 ft | 458 kts | 180° |
| 2026-04-29 15:13 | 8.99088 | -74.84103 | 32854 ft | 457 kts | 180° |
| 2026-04-29 15:14 | 8.95909 | -74.84092 | 32922 ft | 457 kts | 180° |
| 2026-04-29 15:14 | 8.89568 | -74.84069 | 32922 ft | 455 kts | 180° |
| 2026-04-29 15:15 | 8.83228 | -74.84047 | 32917 ft | 456 kts | 180° |
| 2026-04-29 15:15 | 8.76877 | -74.84024 | 32917 ft | 456 kts | 180° |
| 2026-04-29 15:16 | 8.70495 | -74.84002 | 32924 ft | 457 kts | 180° |
| 2026-04-29 15:16 | 8.64162 | -74.83980 | 32923 ft | 457 kts | 180° |
| 2026-04-29 15:17 | 8.57807 | -74.83958 | 32926 ft | 458 kts | 180° |
| 2026-04-29 15:17 | 8.51410 | -74.83935 | 32928 ft | 457 kts | 180° |
| 2026-04-29 15:18 | 8.45058 | -74.83913 | 32933 ft | 457 kts | 180° |
| 2026-04-29 15:18 | 8.38692 | -74.83890 | 32934 ft | 457 kts | 180° |
| 2026-04-29 15:19 | 8.32336 | -74.83868 | 32933 ft | 457 kts | 180° |
| 2026-04-29 15:19 | 8.25962 | -74.83846 | 32928 ft | 458 kts | 180° |
| 2026-04-29 15:20 | 8.19615 | -74.83823 | 32926 ft | 458 kts | 180° |
| 2026-04-29 15:20 | 8.13241 | -74.83801 | 32925 ft | 458 kts | 180° |
| 2026-04-29 15:21 | 8.06840 | -74.83778 | 32933 ft | 459 kts | 180° |
| 2026-04-29 15:21 | 8.00502 | -74.83756 | 32934 ft | 458 kts | 180° |
| 2026-04-29 15:22 | 7.95149 | -74.83737 | 32940 ft | 460 kts | 180° |
| 2026-04-29 15:22 | 7.87882 | -74.83712 | 32968 ft | 460 kts | 180° |
| 2026-04-29 15:23 | 7.81463 | -74.83689 | 33056 ft | 461 kts | 180° |
| 2026-04-29 15:23 | 7.76131 | -74.83671 | 33061 ft | 460 kts | 180° |
| 2026-04-29 15:24 | 7.69724 | -74.83648 | 33071 ft | 460 kts | 180° |
| 2026-04-29 15:24 | 7.63304 | -74.83626 | 33081 ft | 461 kts | 180° |
| 2026-04-29 15:25 | 7.56882 | -74.83603 | 33090 ft | 461 kts | 180° |
| 2026-04-29 15:25 | 7.50504 | -74.83581 | 33100 ft | 461 kts | 180° |
| 2026-04-29 15:26 | 7.44093 | -74.83558 | 33112 ft | 461 kts | 180° |
| 2026-04-29 15:26 | 7.37677 | -74.83536 | 33123 ft | 461 kts | 180° |
| 2026-04-29 15:27 | 7.31280 | -74.83514 | 33132 ft | 461 kts | 180° |
| 2026-04-29 15:27 | 7.24830 | -74.83491 | 33141 ft | 461 kts | 180° |
| 2026-04-29 15:28 | 7.18429 | -74.83469 | 33155 ft | 460 kts | 180° |
| 2026-04-29 15:28 | 7.12044 | -74.83446 | 33158 ft | 461 kts | 180° |
| 2026-04-29 15:29 | 7.05618 | -74.83424 | 33176 ft | 461 kts | 180° |
| 2026-04-29 15:30 | 6.92824 | -74.83379 | 33237 ft | 460 kts | 180° |
| 2026-04-29 15:30 | 6.86431 | -74.83357 | 33250 ft | 460 kts | 180° |
| 2026-04-29 15:31 | 6.80024 | -74.83336 | 33280 ft | 461 kts | 180° |
| 2026-04-29 15:31 | 6.73610 | -74.83312 | 33273 ft | 461 kts | 180° |
| 2026-04-29 15:32 | 6.67152 | -74.83290 | 33274 ft | 461 kts | 180° |
| 2026-04-29 15:32 | 6.60746 | -74.83267 | 33280 ft | 462 kts | 180° |
| 2026-04-29 15:33 | 6.54335 | -74.83245 | 33271 ft | 460 kts | 180° |
| 2026-04-29 15:33 | 6.47912 | -74.83222 | 33291 ft | 462 kts | 180° |
| 2026-04-29 15:34 | 6.41520 | -74.83200 | 33301 ft | 461 kts | 180° |
| 2026-04-29 15:34 | 6.35087 | -74.83178 | 33301 ft | 461 kts | 180° |
| 2026-04-29 15:35 | 6.28687 | -74.83155 | 33313 ft | 461 kts | 180° |
| 2026-04-29 15:35 | 6.22283 | -74.83133 | 33309 ft | 461 kts | 180° |
| 2026-04-29 15:36 | 6.15845 | -74.83108 | 33276 ft | 461 kts | 180° |
| 2026-04-29 15:36 | 6.09425 | -74.83088 | 33256 ft | 462 kts | 180° |
| 2026-04-29 15:37 | 6.03008 | -74.83064 | 33237 ft | 461 kts | 180° |
| 2026-04-29 15:37 | 5.96597 | -74.83456 | 33296 ft | 462 kts | 186° |
| 2026-04-29 15:38 | 5.90190 | -74.84180 | 33208 ft | 463 kts | 186° |
| 2026-04-29 15:38 | 5.83822 | -74.84906 | 33206 ft | 463 kts | 186° |
| 2026-04-29 15:39 | 5.77418 | -74.85635 | 33184 ft | 463 kts | 186° |
| 2026-04-29 15:39 | 5.70969 | -74.86369 | 33152 ft | 464 kts | 186° |
| 2026-04-29 15:40 | 5.64593 | -74.87095 | 33132 ft | 464 kts | 186° |
| 2026-04-29 15:40 | 5.58181 | -74.87825 | 33115 ft | 464 kts | 186° |
| 2026-04-29 15:41 | 5.51749 | -74.88557 | 33094 ft | 464 kts | 186° |
| 2026-04-29 15:41 | 5.45336 | -74.89287 | 33067 ft | 464 kts | 186° |
| 2026-04-29 15:42 | 5.38938 | -74.90015 | 33040 ft | 465 kts | 186° |
| 2026-04-29 15:42 | 5.32495 | -74.90747 | 33023 ft | 465 kts | 186° |
| 2026-04-29 15:43 | 5.26100 | -74.91475 | 33008 ft | 465 kts | 186° |
| 2026-04-29 15:43 | 5.19636 | -74.92070 | 32979 ft | 464 kts | 177° |
| 2026-04-29 15:44 | 5.13172 | -74.91705 | 32977 ft | 465 kts | 176° |
| 2026-04-29 15:44 | 5.06756 | -74.91356 | 33016 ft | 465 kts | 176° |
| 2026-04-29 15:45 | 5.00277 | -74.91001 | 33041 ft | 466 kts | 176° |
| 2026-04-29 15:45 | 4.93805 | -74.90645 | 33068 ft | 466 kts | 176° |
| 2026-04-29 15:46 | 4.87331 | -74.90290 | 33100 ft | 466 kts | 176° |
| 2026-04-29 15:46 | 4.80847 | -74.89934 | 33123 ft | 466 kts | 176° |
| 2026-04-29 15:47 | 4.74418 | -74.89582 | 33140 ft | 466 kts | 176° |
| 2026-04-29 15:47 | 4.67928 | -74.89225 | 33149 ft | 466 kts | 175° |
| 2026-04-29 15:48 | 4.61433 | -74.88869 | 33111 ft | 466 kts | 175° |
| 2026-04-29 15:48 | 4.54978 | -74.88515 | 33111 ft | 467 kts | 175° |
| 2026-04-29 15:49 | 4.48485 | -74.88159 | 33107 ft | 467 kts | 175° |
| 2026-04-29 15:49 | 4.42026 | -74.87805 | 33109 ft | 466 kts | 175° |
| 2026-04-29 15:50 | 4.35511 | -74.87448 | 33098 ft | 467 kts | 175° |
| 2026-04-29 15:50 | 4.29027 | -74.87093 | 33123 ft | 467 kts | 175° |
| 2026-04-29 15:51 | 4.22528 | -74.86737 | 33129 ft | 467 kts | 175° |
| 2026-04-29 15:51 | 4.16116 | -74.85819 | 33165 ft | 465 kts | 165° |
| 2026-04-29 15:52 | 4.09842 | -74.84362 | 33135 ft | 465 kts | 165° |
| 2026-04-29 15:52 | 4.03535 | -74.82891 | 33139 ft | 465 kts | 165° |
| 2026-04-29 15:53 | 3.97224 | -74.81417 | 33146 ft | 466 kts | 165° |
| 2026-04-29 15:53 | 3.90926 | -74.79946 | 33151 ft | 467 kts | 165° |
| 2026-04-29 15:54 | 3.84610 | -74.78474 | 33132 ft | 466 kts | 165° |
| 2026-04-29 15:54 | 3.78252 | -74.76988 | 33139 ft | 467 kts | 165° |
| 2026-04-29 15:55 | 3.71950 | -74.75517 | 33140 ft | 467 kts | 165° |
| 2026-04-29 15:55 | 3.65604 | -74.74036 | 33135 ft | 466 kts | 165° |
| 2026-04-29 15:56 | 3.59309 | -74.72567 | 33133 ft | 467 kts | 165° |
| 2026-04-29 15:56 | 3.52976 | -74.71089 | 33063 ft | 467 kts | 165° |
| 2026-04-29 15:57 | 3.46623 | -74.69608 | 33049 ft | 468 kts | 165° |
| 2026-04-29 15:57 | 3.40315 | -74.68136 | 33059 ft | 468 kts | 165° |
| 2026-04-29 15:58 | 3.33965 | -74.66655 | 33040 ft | 468 kts | 165° |
| 2026-04-29 15:58 | 3.27627 | -74.65178 | 33046 ft | 468 kts | 165° |
| 2026-04-29 15:59 | 3.21325 | -74.63709 | 33036 ft | 468 kts | 165° |
| 2026-04-29 15:59 | 3.14973 | -74.62228 | 33034 ft | 468 kts | 165° |
| 2026-04-29 16:00 | 3.08624 | -74.60748 | 33039 ft | 468 kts | 165° |
| 2026-04-29 16:00 | 3.02271 | -74.59267 | 33035 ft | 468 kts | 165° |
| 2026-04-29 16:01 | 2.95918 | -74.57787 | 33038 ft | 469 kts | 166° |
| 2026-04-29 16:01 | 2.89555 | -74.56304 | 33019 ft | 469 kts | 166° |
| 2026-04-29 16:02 | 2.83186 | -74.54821 | 33018 ft | 470 kts | 166° |
| 2026-04-29 16:02 | 2.76820 | -74.53338 | 33016 ft | 470 kts | 166° |
| 2026-04-29 16:03 | 2.70447 | -74.51853 | 33017 ft | 470 kts | 166° |
| 2026-04-29 16:03 | 2.64091 | -74.50373 | 33016 ft | 471 kts | 166° |
| 2026-04-29 16:04 | 2.57696 | -74.48884 | 33015 ft | 471 kts | 166° |
| 2026-04-29 16:04 | 2.51328 | -74.47401 | 33017 ft | 471 kts | 166° |
| 2026-04-29 16:05 | 2.44942 | -74.45914 | 33011 ft | 472 kts | 166° |
| 2026-04-29 16:05 | 2.38534 | -74.44422 | 33008 ft | 472 kts | 166° |
| 2026-04-29 16:06 | 2.32167 | -74.42941 | 33009 ft | 473 kts | 166° |
| 2026-04-29 16:06 | 2.25729 | -74.41442 | 33008 ft | 473 kts | 166° |
| 2026-04-29 16:07 | 2.19338 | -74.39955 | 33008 ft | 473 kts | 166° |
| 2026-04-29 16:07 | 2.12945 | -74.38467 | 33009 ft | 473 kts | 166° |
| 2026-04-29 16:08 | 2.06533 | -74.36975 | 32997 ft | 473 kts | 166° |
| 2026-04-29 16:08 | 2.00105 | -74.35479 | 33000 ft | 473 kts | 166° |
| 2026-04-29 16:09 | 1.93684 | -74.33985 | 33000 ft | 473 kts | 166° |
| 2026-04-29 16:09 | 1.87289 | -74.32498 | 33001 ft | 473 kts | 166° |
| 2026-04-29 16:10 | 1.80905 | -74.31012 | 32999 ft | 473 kts | 166° |
| 2026-04-29 16:10 | 1.74475 | -74.29517 | 32999 ft | 473 kts | 166° |
| 2026-04-29 16:11 | 1.68076 | -74.28029 | 32998 ft | 473 kts | 166° |
| 2026-04-29 16:11 | 1.62735 | -74.26786 | 32999 ft | 473 kts | 166° |
| 2026-04-29 16:12 | 1.56307 | -74.25291 | 32994 ft | 472 kts | 166° |
| 2026-04-29 16:12 | 1.49926 | -74.23807 | 32988 ft | 472 kts | 166° |
| 2026-04-29 16:13 | 1.43530 | -74.22320 | 32977 ft | 472 kts | 166° |
| 2026-04-29 16:13 | 1.37156 | -74.20838 | 32983 ft | 472 kts | 166° |
| 2026-04-29 16:14 | 1.30759 | -74.19351 | 32991 ft | 471 kts | 166° |
| 2026-04-29 16:14 | 1.24413 | -74.17876 | 32996 ft | 471 kts | 166° |
| 2026-04-29 16:15 | 1.18036 | -74.16393 | 32987 ft | 470 kts | 166° |
| 2026-04-29 16:15 | 1.11675 | -74.14914 | 32982 ft | 469 kts | 166° |
| 2026-04-29 16:16 | 1.05293 | -74.13430 | 32984 ft | 468 kts | 166° |
| 2026-04-29 16:16 | 0.98958 | -74.11958 | 32962 ft | 468 kts | 166° |
| 2026-04-29 16:17 | 0.92653 | -74.10493 | 32954 ft | 468 kts | 166° |
| 2026-04-29 16:17 | 0.86316 | -74.09020 | 32986 ft | 468 kts | 166° |
| 2026-04-29 16:18 | 0.79979 | -74.07547 | 32997 ft | 467 kts | 166° |
| 2026-04-29 16:18 | 0.73657 | -74.06078 | 32993 ft | 466 kts | 166° |
| 2026-04-29 16:19 | 0.67362 | -74.04615 | 32994 ft | 465 kts | 166° |
| 2026-04-29 16:19 | 0.61047 | -74.03147 | 32975 ft | 465 kts | 166° |
| 2026-04-29 16:20 | 0.54739 | -74.01681 | 32985 ft | 465 kts | 166° |
| 2026-04-29 16:20 | 0.48452 | -74.00221 | 32992 ft | 465 kts | 166° |
| 2026-04-29 16:21 | 0.42114 | -73.98747 | 32989 ft | 465 kts | 166° |
| 2026-04-29 16:21 | 0.35872 | -73.97297 | 32982 ft | 464 kts | 166° |
| 2026-04-29 16:22 | 0.29576 | -73.95833 | 32989 ft | 464 kts | 166° |
| 2026-04-29 16:22 | 0.23297 | -73.94374 | 32981 ft | 464 kts | 166° |
| 2026-04-29 16:23 | 0.16972 | -73.92904 | 32996 ft | 464 kts | 166° |
| 2026-04-29 16:23 | 0.10696 | -73.91446 | 32986 ft | 463 kts | 166° |
| 2026-04-29 16:24 | 0.04443 | -73.89993 | 32984 ft | 463 kts | 166° |
| 2026-04-29 16:24 | -0.01854 | -73.88530 | 32985 ft | 463 kts | 166° |
| 2026-04-29 16:25 | -0.08123 | -73.87074 | 32988 ft | 463 kts | 166° |
| 2026-04-29 16:25 | -0.14449 | -73.85602 | 32980 ft | 463 kts | 166° |
| 2026-04-29 16:26 | -0.20708 | -73.84148 | 32968 ft | 462 kts | 166° |
| 2026-04-29 16:26 | -0.26964 | -73.82695 | 32984 ft | 463 kts | 166° |
| 2026-04-29 16:27 | -0.33248 | -73.81234 | 32984 ft | 463 kts | 166° |
| 2026-04-29 16:27 | -0.39548 | -73.79772 | 32980 ft | 463 kts | 166° |
| 2026-04-29 16:28 | -0.45799 | -73.78319 | 32983 ft | 463 kts | 166° |
| 2026-04-29 16:28 | -0.52099 | -73.76854 | 32991 ft | 463 kts | 166° |
| 2026-04-29 16:29 | -0.58347 | -73.75402 | 32990 ft | 463 kts | 166° |
| 2026-04-29 16:29 | -0.64619 | -73.73944 | 32987 ft | 463 kts | 166° |
| 2026-04-29 16:30 | -0.70927 | -73.72478 | 32980 ft | 463 kts | 166° |
| 2026-04-29 16:30 | -0.77207 | -73.71019 | 32990 ft | 463 kts | 166° |
| 2026-04-29 16:31 | -0.83478 | -73.69561 | 32991 ft | 463 kts | 166° |
| 2026-04-29 16:31 | -0.89758 | -73.68102 | 32996 ft | 463 kts | 166° |
| 2026-04-29 16:32 | -0.96037 | -73.66642 | 32989 ft | 463 kts | 166° |
| 2026-04-29 16:32 | -1.02294 | -73.65188 | 32988 ft | 463 kts | 166° |
| 2026-04-29 16:33 | -1.11718 | -73.62997 | 32992 ft | 463 kts | 167° |
| 2026-04-29 16:33 | -1.18066 | -73.62104 | 32999 ft | 463 kts | 173° |
| 2026-04-29 16:34 | -1.24488 | -73.61352 | 32983 ft | 463 kts | 173° |
| 2026-04-29 16:34 | -1.30862 | -73.60613 | 32989 ft | 463 kts | 173° |
| 2026-04-29 16:35 | -1.37261 | -73.59871 | 32982 ft | 463 kts | 173° |
| 2026-04-29 16:35 | -1.43673 | -73.59128 | 32986 ft | 463 kts | 173° |
| 2026-04-29 16:36 | -1.50053 | -73.58389 | 32991 ft | 463 kts | 173° |
| 2026-04-29 16:36 | -1.56431 | -73.57649 | 32989 ft | 463 kts | 173° |
| 2026-04-29 16:37 | -1.62867 | -73.56903 | 32993 ft | 462 kts | 173° |
| 2026-04-29 16:37 | -1.68164 | -73.56289 | 32990 ft | 462 kts | 173° |
| 2026-04-29 16:38 | -1.75613 | -73.55425 | 32988 ft | 462 kts | 173° |
| 2026-04-29 16:38 | -1.81988 | -73.54686 | 32985 ft | 462 kts | 173° |
| 2026-04-29 16:39 | -1.88368 | -73.53946 | 32978 ft | 462 kts | 173° |
| 2026-04-29 16:39 | -1.94763 | -73.53205 | 32979 ft | 462 kts | 173° |
| 2026-04-29 16:40 | -2.01167 | -73.52461 | 32984 ft | 462 kts | 173° |
| 2026-04-29 16:40 | -2.07575 | -73.51718 | 32980 ft | 462 kts | 173° |
| 2026-04-29 16:41 | -2.13921 | -73.50982 | 32980 ft | 462 kts | 173° |
| 2026-04-29 16:41 | -2.20335 | -73.50238 | 32962 ft | 462 kts | 173° |
| 2026-04-29 16:42 | -2.26730 | -73.49496 | 32957 ft | 462 kts | 173° |
| 2026-04-29 16:42 | -2.33064 | -73.48761 | 32964 ft | 462 kts | 173° |
| 2026-04-29 16:43 | -2.39453 | -73.48020 | 32963 ft | 462 kts | 173° |
| 2026-04-29 16:43 | -2.45854 | -73.47277 | 32964 ft | 462 kts | 173° |
| 2026-04-29 16:44 | -2.52274 | -73.46532 | 32962 ft | 462 kts | 173° |
| 2026-04-29 16:44 | -2.58630 | -73.45794 | 32959 ft | 462 kts | 173° |
| 2026-04-29 16:45 | -2.65044 | -73.45050 | 32963 ft | 462 kts | 173° |
| 2026-04-29 16:45 | -2.71419 | -73.44310 | 32962 ft | 462 kts | 173° |
| 2026-04-29 16:46 | -2.77816 | -73.43567 | 32963 ft | 463 kts | 173° |
| 2026-04-29 16:46 | -2.84187 | -73.42827 | 32959 ft | 463 kts | 173° |
| 2026-04-29 16:47 | -2.90608 | -73.42082 | 32963 ft | 463 kts | 173° |
| 2026-04-29 16:47 | -2.96999 | -73.41339 | 32964 ft | 463 kts | 173° |
| 2026-04-29 16:48 | -3.03364 | -73.40600 | 32962 ft | 463 kts | 173° |
| 2026-04-29 16:48 | -3.09791 | -73.39853 | 32956 ft | 463 kts | 173° |
| 2026-04-29 16:49 | -3.16205 | -73.39108 | 32963 ft | 463 kts | 173° |
| 2026-04-29 16:49 | -3.22568 | -73.38368 | 32963 ft | 463 kts | 173° |
| 2026-04-29 16:50 | -3.28957 | -73.37626 | 32957 ft | 463 kts | 173° |
| 2026-04-29 16:50 | -3.35381 | -73.36880 | 32961 ft | 463 kts | 173° |
| 2026-04-29 16:51 | -3.41782 | -73.36136 | 32960 ft | 463 kts | 173° |
| 2026-04-29 16:51 | -3.48193 | -73.35389 | 32963 ft | 463 kts | 173° |
| 2026-04-29 16:52 | -3.54553 | -73.34650 | 32964 ft | 463 kts | 173° |
| 2026-04-29 16:52 | -3.60973 | -73.33904 | 32957 ft | 463 kts | 173° |
| 2026-04-29 16:53 | -3.67363 | -73.33161 | 32963 ft | 463 kts | 173° |
| 2026-04-29 16:53 | -3.73740 | -73.32419 | 32957 ft | 463 kts | 173° |
| 2026-04-29 16:54 | -3.80113 | -73.31567 | 32954 ft | 462 kts | 167° |
| 2026-04-29 16:54 | -3.86436 | -73.30269 | 32956 ft | 464 kts | 168° |
| 2026-04-29 16:55 | -3.91727 | -73.29234 | 32962 ft | 464 kts | 169° |
| 2026-04-29 16:55 | -3.99079 | -73.27808 | 32964 ft | 464 kts | 169° |
| 2026-04-29 16:56 | -4.05446 | -73.26575 | 32958 ft | 464 kts | 169° |
| 2026-04-29 16:56 | -4.11783 | -73.25347 | 32965 ft | 464 kts | 169° |
| 2026-04-29 16:57 | -4.18134 | -73.24115 | 32960 ft | 464 kts | 169° |
| 2026-04-29 16:57 | -4.24438 | -73.22893 | 32962 ft | 464 kts | 169° |
| 2026-04-29 16:58 | -4.30753 | -73.21668 | 32962 ft | 464 kts | 169° |
| 2026-04-29 16:58 | -4.37088 | -73.20440 | 32964 ft | 464 kts | 169° |
| 2026-04-29 16:59 | -4.42385 | -73.19412 | 32959 ft | 464 kts | 169° |
| 2026-04-29 16:59 | -4.48710 | -73.18185 | 32965 ft | 464 kts | 169° |
| 2026-04-29 17:00 | -4.55066 | -73.16951 | 32958 ft | 464 kts | 169° |
| 2026-04-29 17:00 | -4.61391 | -73.15724 | 32964 ft | 464 kts | 169° |
| 2026-04-29 17:01 | -4.67715 | -73.14496 | 32962 ft | 464 kts | 169° |
| 2026-04-29 17:01 | -4.74073 | -73.13262 | 32961 ft | 464 kts | 169° |
| 2026-04-29 17:02 | -4.80412 | -73.12030 | 32964 ft | 464 kts | 169° |
| 2026-04-29 17:02 | -4.86716 | -73.10807 | 32964 ft | 463 kts | 169° |
| 2026-04-29 17:03 | -4.93038 | -73.09578 | 32968 ft | 463 kts | 169° |
| 2026-04-29 17:03 | -4.99402 | -73.08342 | 32961 ft | 464 kts | 169° |
| 2026-04-29 17:04 | -5.05719 | -73.07114 | 32962 ft | 464 kts | 169° |
| 2026-04-29 17:04 | -5.12070 | -73.05879 | 32960 ft | 464 kts | 169° |
| 2026-04-29 17:05 | -5.18390 | -73.04650 | 32964 ft | 463 kts | 169° |
| 2026-04-29 17:05 | -5.24721 | -73.03419 | 32957 ft | 463 kts | 169° |
| 2026-04-29 17:06 | -5.31059 | -73.02187 | 32957 ft | 463 kts | 169° |
| 2026-04-29 17:06 | -5.37386 | -73.00956 | 32964 ft | 463 kts | 169° |
| 2026-04-29 17:07 | -5.43713 | -72.99725 | 32963 ft | 463 kts | 169° |
| 2026-04-29 17:07 | -5.50013 | -72.98499 | 32955 ft | 463 kts | 169° |
| 2026-04-29 17:08 | -5.56376 | -72.97260 | 32937 ft | 463 kts | 169° |
| 2026-04-29 17:08 | -5.62661 | -72.96036 | 32933 ft | 463 kts | 169° |
| 2026-04-29 17:09 | -5.69027 | -72.94781 | 32937 ft | 464 kts | 168° |
| 2026-04-29 17:09 | -5.75329 | -72.93538 | 32934 ft | 464 kts | 168° |
| 2026-04-29 17:10 | -5.81652 | -72.92291 | 32935 ft | 464 kts | 168° |
| 2026-04-29 17:10 | -5.88021 | -72.91034 | 32934 ft | 464 kts | 168° |
| 2026-04-29 17:11 | -5.94322 | -72.89790 | 32936 ft | 464 kts | 168° |
| 2026-04-29 17:11 | -6.00687 | -72.88533 | 32933 ft | 464 kts | 168° |
| 2026-04-29 17:12 | -6.07011 | -72.87284 | 32936 ft | 464 kts | 168° |
| 2026-04-29 17:12 | -6.12291 | -72.86241 | 32933 ft | 464 kts | 168° |
| 2026-04-29 17:13 | -6.19690 | -72.84779 | 32933 ft | 464 kts | 168° |
| 2026-04-29 17:13 | -6.26000 | -72.83532 | 32933 ft | 464 kts | 168° |
| 2026-04-29 17:14 | -6.32337 | -72.82279 | 32934 ft | 464 kts | 168° |
| 2026-04-29 17:14 | -6.38666 | -72.81028 | 32934 ft | 464 kts | 168° |
| 2026-04-29 17:15 | -6.45003 | -72.79774 | 32934 ft | 464 kts | 168° |
| 2026-04-29 17:15 | -6.51304 | -72.78528 | 32933 ft | 464 kts | 168° |
| 2026-04-29 17:16 | -6.57665 | -72.77269 | 32937 ft | 463 kts | 168° |
| 2026-04-29 17:16 | -6.63981 | -72.76019 | 32935 ft | 464 kts | 168° |
| 2026-04-29 17:17 | -6.70308 | -72.74766 | 32934 ft | 464 kts | 168° |
| 2026-04-29 17:17 | -6.76667 | -72.73507 | 32934 ft | 464 kts | 168° |
| 2026-04-29 17:18 | -6.83008 | -72.72251 | 32933 ft | 464 kts | 169° |
| 2026-04-29 17:18 | -6.89290 | -72.71006 | 32936 ft | 464 kts | 169° |
| 2026-04-29 17:19 | -6.95620 | -72.69751 | 32934 ft | 464 kts | 169° |
| 2026-04-29 17:19 | -7.01948 | -72.68496 | 32934 ft | 464 kts | 169° |
| 2026-04-29 17:20 | -7.08317 | -72.67233 | 32936 ft | 464 kts | 169° |
| 2026-04-29 17:20 | -7.14602 | -72.65987 | 32934 ft | 464 kts | 169° |
| 2026-04-29 17:21 | -7.20942 | -72.64729 | 32933 ft | 464 kts | 169° |
| 2026-04-29 17:21 | -7.27276 | -72.63472 | 32934 ft | 464 kts | 169° |
| 2026-04-29 17:22 | -7.33589 | -72.62218 | 32934 ft | 464 kts | 169° |
| 2026-04-29 17:22 | -7.39946 | -72.60956 | 32934 ft | 464 kts | 169° |
| 2026-04-29 17:23 | -7.46260 | -72.59701 | 32934 ft | 464 kts | 169° |
| 2026-04-29 17:23 | -7.52623 | -72.58437 | 32934 ft | 464 kts | 169° |
| 2026-04-29 17:24 | -7.58913 | -72.57186 | 32936 ft | 463 kts | 169° |
| 2026-04-29 17:24 | -7.65274 | -72.55922 | 32933 ft | 463 kts | 169° |
| 2026-04-29 17:25 | -7.71585 | -72.54660 | 32934 ft | 464 kts | 168° |
| 2026-04-29 17:25 | -7.77899 | -72.53370 | 32933 ft | 463 kts | 168° |
| 2026-04-29 17:26 | -7.84213 | -72.52082 | 32935 ft | 463 kts | 168° |
| 2026-04-29 17:26 | -7.90507 | -72.50798 | 32934 ft | 463 kts | 168° |
| 2026-04-29 17:27 | -7.96851 | -72.49504 | 32933 ft | 463 kts | 168° |
| 2026-04-29 17:27 | -8.03189 | -72.48210 | 32933 ft | 464 kts | 169° |
| 2026-04-29 17:28 | -8.09470 | -72.46927 | 32934 ft | 464 kts | 169° |
| 2026-04-29 17:28 | -8.15796 | -72.45635 | 32935 ft | 464 kts | 169° |
| 2026-04-29 17:29 | -8.22139 | -72.44339 | 32935 ft | 464 kts | 169° |
| 2026-04-29 17:29 | -8.27407 | -72.43263 | 32934 ft | 464 kts | 169° |
| 2026-04-29 17:30 | -8.34797 | -72.41752 | 32932 ft | 464 kts | 169° |
| 2026-04-29 17:30 | -8.41095 | -72.40464 | 32933 ft | 464 kts | 169° |
| 2026-04-29 17:31 | -8.47433 | -72.39167 | 32939 ft | 464 kts | 169° |
| 2026-04-29 17:31 | -8.53739 | -72.37877 | 32943 ft | 464 kts | 169° |
| 2026-04-29 17:32 | -8.60072 | -72.36580 | 32941 ft | 464 kts | 169° |
| 2026-04-29 17:32 | -8.66420 | -72.35280 | 32948 ft | 464 kts | 169° |
| 2026-04-29 17:33 | -8.72710 | -72.33991 | 32963 ft | 464 kts | 169° |
| 2026-04-29 17:33 | -8.79086 | -72.32686 | 32960 ft | 464 kts | 169° |
| 2026-04-29 17:34 | -8.85378 | -72.31397 | 32963 ft | 464 kts | 169° |
| 2026-04-29 17:34 | -8.91703 | -72.30102 | 32961 ft | 464 kts | 169° |
| 2026-04-29 17:35 | -9.01225 | -72.28240 | 32974 ft | 465 kts | 170° |
| 2026-04-29 17:36 | -9.07578 | -72.27038 | 32971 ft | 465 kts | 169° |
| 2026-04-29 17:36 | -9.13940 | -72.25831 | 32970 ft | 465 kts | 170° |
| 2026-04-29 17:37 | -9.20316 | -72.24622 | 32970 ft | 465 kts | 170° |
| 2026-04-29 17:37 | -9.26657 | -72.23418 | 32970 ft | 465 kts | 170° |
| 2026-04-29 17:38 | -9.33004 | -72.22213 | 32984 ft | 465 kts | 170° |
| 2026-04-29 17:38 | -9.39382 | -72.21002 | 32975 ft | 465 kts | 170° |
| 2026-04-29 17:39 | -9.45739 | -72.19794 | 32984 ft | 466 kts | 170° |
| 2026-04-29 17:39 | -9.52133 | -72.18572 | 32981 ft | 466 kts | 169° |
| 2026-04-29 17:40 | -9.58508 | -72.17308 | 32978 ft | 466 kts | 169° |
| 2026-04-29 17:40 | -9.64861 | -72.16053 | 32976 ft | 466 kts | 169° |
| 2026-04-29 17:41 | -9.71205 | -72.14798 | 32986 ft | 466 kts | 169° |
| 2026-04-29 17:41 | -9.77552 | -72.13543 | 32996 ft | 466 kts | 169° |
| 2026-04-29 17:42 | -9.83943 | -72.12279 | 32993 ft | 466 kts | 169° |
| 2026-04-29 17:42 | -9.90269 | -72.11027 | 32990 ft | 465 kts | 169° |
| 2026-04-29 17:43 | -9.96640 | -72.09766 | 33006 ft | 466 kts | 169° |
| 2026-04-29 17:43 | -10.02973 | -72.08494 | 33015 ft | 466 kts | 169° |
| 2026-04-29 17:44 | -10.09322 | -72.07208 | 33017 ft | 465 kts | 169° |
| 2026-04-29 17:44 | -10.15708 | -72.05916 | 33028 ft | 466 kts | 169° |
| 2026-04-29 17:45 | -10.22037 | -72.04635 | 33047 ft | 465 kts | 169° |
| 2026-04-29 17:45 | -10.28400 | -72.03346 | 33156 ft | 466 kts | 169° |
| 2026-04-29 17:46 | -10.34768 | -72.02055 | 33170 ft | 466 kts | 169° |
| 2026-04-29 17:46 | -10.41089 | -72.00774 | 33189 ft | 466 kts | 169° |
| 2026-04-29 17:47 | -10.47444 | -71.99487 | 33200 ft | 466 kts | 169° |
| 2026-04-29 17:47 | -10.53813 | -71.98195 | 33222 ft | 466 kts | 169° |
| 2026-04-29 17:48 | -10.59175 | -71.97103 | 33139 ft | 468 kts | 169° |
| 2026-04-29 17:48 | -10.66560 | -71.95605 | 33200 ft | 468 kts | 169° |
| 2026-04-29 17:49 | -10.71920 | -71.94516 | 33103 ft | 467 kts | 169° |
| 2026-04-29 17:49 | -10.78293 | -71.93221 | 33110 ft | 468 kts | 169° |
| 2026-04-29 17:50 | -10.84664 | -71.91926 | 33109 ft | 468 kts | 169° |
| 2026-04-29 17:50 | -10.91068 | -71.90623 | 33118 ft | 469 kts | 169° |
| 2026-04-29 17:51 | -10.97454 | -71.89324 | 33125 ft | 470 kts | 169° |
| 2026-04-29 17:51 | -11.03843 | -71.88023 | 33129 ft | 470 kts | 169° |
| 2026-04-29 17:52 | -11.10305 | -71.86707 | 33127 ft | 471 kts | 169° |
| 2026-04-29 17:52 | -11.16684 | -71.85407 | 33128 ft | 471 kts | 169° |
| 2026-04-29 17:53 | -11.23114 | -71.84096 | 33133 ft | 472 kts | 169° |
| 2026-04-29 17:53 | -11.29541 | -71.82786 | 33137 ft | 471 kts | 169° |
| 2026-04-29 17:54 | -11.35989 | -71.81470 | 33147 ft | 472 kts | 169° |
| 2026-04-29 17:54 | -11.42421 | -71.80157 | 33148 ft | 472 kts | 169° |
| 2026-04-29 17:55 | -11.48876 | -71.78839 | 33161 ft | 473 kts | 169° |
| 2026-04-29 17:55 | -11.55341 | -71.77518 | 33163 ft | 473 kts | 169° |
| 2026-04-29 17:56 | -11.61797 | -71.76198 | 33170 ft | 474 kts | 169° |
| 2026-04-29 17:56 | -11.68257 | -71.74877 | 33174 ft | 473 kts | 170° |
| 2026-04-29 17:57 | -11.74715 | -71.73556 | 33192 ft | 474 kts | 170° |
| 2026-04-29 17:57 | -11.81183 | -71.72232 | 33201 ft | 474 kts | 170° |
| 2026-04-29 17:58 | -11.87639 | -71.70909 | 33246 ft | 473 kts | 170° |
| 2026-04-29 17:58 | -11.94069 | -71.69592 | 33264 ft | 474 kts | 170° |
| 2026-04-29 17:59 | -12.00559 | -71.68261 | 33272 ft | 473 kts | 170° |
| 2026-04-29 17:59 | -12.06997 | -71.66941 | 33274 ft | 474 kts | 170° |
| 2026-04-29 18:00 | -12.13489 | -71.65608 | 33289 ft | 475 kts | 170° |
| 2026-04-29 18:00 | -12.19948 | -71.64282 | 33291 ft | 474 kts | 170° |
| 2026-04-29 18:01 | -12.26382 | -71.62961 | 33296 ft | 474 kts | 170° |
| 2026-04-29 18:01 | -12.32873 | -71.61627 | 33306 ft | 474 kts | 170° |
| 2026-04-29 18:02 | -12.39320 | -71.60302 | 33313 ft | 474 kts | 170° |
| 2026-04-29 18:02 | -12.45827 | -71.58966 | 33321 ft | 475 kts | 170° |
| 2026-04-29 18:03 | -12.52261 | -71.57646 | 33325 ft | 475 kts | 170° |
| 2026-04-29 18:03 | -12.58752 | -71.56314 | 33336 ft | 475 kts | 170° |
| 2026-04-29 18:04 | -12.65250 | -71.54979 | 33345 ft | 476 kts | 170° |
| 2026-04-29 18:04 | -12.71728 | -71.53648 | 33392 ft | 476 kts | 170° |
| 2026-04-29 18:05 | -12.78242 | -71.52309 | 33402 ft | 476 kts | 170° |
| 2026-04-29 18:05 | -12.84756 | -71.50968 | 33404 ft | 477 kts | 170° |
| 2026-04-29 18:06 | -12.91222 | -71.49637 | 33405 ft | 477 kts | 170° |
| 2026-04-29 18:06 | -12.97750 | -71.48293 | 33417 ft | 478 kts | 169° |
| 2026-04-29 18:07 | -13.04279 | -71.46947 | 33422 ft | 478 kts | 170° |
| 2026-04-29 18:07 | -13.10783 | -71.45606 | 33426 ft | 479 kts | 170° |
| 2026-04-29 18:08 | -13.17339 | -71.44253 | 33425 ft | 479 kts | 170° |
| 2026-04-29 18:08 | -13.23802 | -71.42919 | 33404 ft | 473 kts | 170° |
| 2026-04-29 18:09 | -13.30293 | -71.41579 | 33401 ft | 472 kts | 170° |
| 2026-04-29 18:09 | -13.36694 | -71.40256 | 33404 ft | 473 kts | 170° |
| 2026-04-29 18:10 | -13.43144 | -71.38922 | 33397 ft | 473 kts | 170° |
| 2026-04-29 18:10 | -13.49591 | -71.37588 | 33395 ft | 473 kts | 170° |
| 2026-04-29 18:11 | -13.56059 | -71.36250 | 33398 ft | 474 kts | 170° |
| 2026-04-29 18:11 | -13.62525 | -71.34914 | 33409 ft | 474 kts | 170° |
| 2026-04-29 18:12 | -13.68965 | -71.33583 | 33417 ft | 473 kts | 170° |
| 2026-04-29 18:12 | -13.75419 | -71.32247 | 33404 ft | 474 kts | 170° |
| 2026-04-29 18:13 | -13.81880 | -71.30910 | 33400 ft | 474 kts | 169° |
| 2026-04-29 18:13 | -13.88335 | -71.29573 | 33383 ft | 474 kts | 170° |
| 2026-04-29 18:14 | -13.94828 | -71.28227 | 33394 ft | 474 kts | 170° |
| 2026-04-29 18:14 | -14.01284 | -71.26888 | 33396 ft | 474 kts | 170° |
| 2026-04-29 18:15 | -14.07753 | -71.25546 | 33387 ft | 477 kts | 170° |
| 2026-04-29 18:15 | -14.14262 | -71.24194 | 33408 ft | 477 kts | 170° |
| 2026-04-29 18:16 | -14.20778 | -71.22841 | 33398 ft | 477 kts | 170° |
| 2026-04-29 18:16 | -14.27298 | -71.21486 | 33400 ft | 477 kts | 170° |
| 2026-04-29 18:17 | -14.33800 | -71.20134 | 33388 ft | 477 kts | 170° |
| 2026-04-29 18:17 | -14.40320 | -71.18777 | 33395 ft | 478 kts | 170° |
| 2026-04-29 18:18 | -14.46851 | -71.17417 | 33390 ft | 478 kts | 170° |
| 2026-04-29 18:18 | -14.53351 | -71.16063 | 33390 ft | 478 kts | 170° |
| 2026-04-29 18:19 | -14.59842 | -71.14710 | 33395 ft | 479 kts | 170° |
| 2026-04-29 18:19 | -14.66411 | -71.13339 | 33406 ft | 479 kts | 170° |
| 2026-04-29 18:20 | -14.72898 | -71.11986 | 33400 ft | 479 kts | 170° |
| 2026-04-29 18:20 | -14.79449 | -71.10617 | 33406 ft | 478 kts | 170° |
| 2026-04-29 18:21 | -14.85958 | -71.09257 | 33413 ft | 480 kts | 170° |
| 2026-04-29 18:21 | -14.92498 | -71.07889 | 33422 ft | 480 kts | 170° |
| 2026-04-29 18:22 | -14.99088 | -71.06511 | 33424 ft | 480 kts | 170° |
| 2026-04-29 18:22 | -15.05585 | -71.05151 | 33421 ft | 480 kts | 171° |
| 2026-04-29 18:23 | -15.12167 | -71.03772 | 33424 ft | 480 kts | 171° |
| 2026-04-29 18:23 | -15.18711 | -71.02399 | 33433 ft | 480 kts | 171° |
| 2026-04-29 18:24 | -15.25241 | -71.01029 | 33436 ft | 480 kts | 171° |
| 2026-04-29 18:24 | -15.31779 | -70.99657 | 33432 ft | 481 kts | 171° |
| 2026-04-29 18:25 | -15.38348 | -70.98276 | 33430 ft | 481 kts | 171° |
| 2026-04-29 18:25 | -15.44916 | -70.96895 | 33426 ft | 482 kts | 171° |
| 2026-04-29 18:26 | -15.51450 | -70.95521 | 33429 ft | 482 kts | 171° |
| 2026-04-29 18:26 | -15.58065 | -70.94129 | 33420 ft | 482 kts | 171° |
| 2026-04-29 18:27 | -15.64607 | -70.92750 | 33414 ft | 482 kts | 171° |
| 2026-04-29 18:27 | -15.71202 | -70.91361 | 33413 ft | 482 kts | 171° |
| 2026-04-29 18:28 | -15.77765 | -70.89977 | 33408 ft | 482 kts | 171° |
| 2026-04-29 18:28 | -15.84308 | -70.88594 | 33401 ft | 484 kts | 171° |
| 2026-04-29 18:29 | -15.90898 | -70.87204 | 33390 ft | 483 kts | 171° |
| 2026-04-29 18:29 | -15.97497 | -70.85809 | 33379 ft | 483 kts | 171° |
| 2026-04-29 18:30 | -16.04074 | -70.84418 | 33372 ft | 484 kts | 171° |
| 2026-04-29 18:30 | -16.10701 | -70.83015 | 33360 ft | 484 kts | 171° |
| 2026-04-29 18:31 | -16.17287 | -70.81628 | 33377 ft | 485 kts | 171° |
| 2026-04-29 18:31 | -16.23924 | -70.80210 | 33387 ft | 485 kts | 171° |
| 2026-04-29 18:32 | -16.30511 | -70.78818 | 33335 ft | 484 kts | 171° |
| 2026-04-29 18:32 | -16.40413 | -70.76718 | 33302 ft | 484 kts | 171° |
| 2026-04-29 18:33 | -16.47025 | -70.75317 | 33259 ft | 484 kts | 171° |
| 2026-04-29 18:33 | -16.53596 | -70.73923 | 33263 ft | 484 kts | 171° |
| 2026-04-29 18:34 | -16.58035 | -70.72981 | 33251 ft | 485 kts | 171° |
| 2026-04-29 18:34 | -16.66813 | -70.71117 | 33224 ft | 484 kts | 171° |
| 2026-04-29 18:35 | -16.73422 | -70.69713 | 33193 ft | 484 kts | 171° |
| 2026-04-29 18:35 | -16.80023 | -70.68310 | 33193 ft | 484 kts | 171° |
| 2026-04-29 18:36 | -16.86615 | -70.66907 | 33178 ft | 484 kts | 171° |
| 2026-04-29 18:36 | -16.93174 | -70.65511 | 33137 ft | 484 kts | 171° |
| 2026-04-29 18:37 | -16.99798 | -70.64099 | 33124 ft | 483 kts | 171° |
| 2026-04-29 18:37 | -17.06383 | -70.62695 | 33099 ft | 483 kts | 171° |
| 2026-04-29 18:38 | -17.11862 | -70.61526 | 33098 ft | 484 kts | 171° |
| 2026-04-29 18:38 | -17.18447 | -70.60120 | 33084 ft | 484 kts | 171° |
| 2026-04-29 18:39 | -17.25048 | -70.58709 | 33068 ft | 484 kts | 171° |
| 2026-04-29 18:39 | -17.31678 | -70.57292 | 33057 ft | 484 kts | 171° |
| 2026-04-29 18:40 | -17.38266 | -70.55882 | 33037 ft | 484 kts | 171° |
| 2026-04-29 18:40 | -17.44831 | -70.54476 | 33026 ft | 483 kts | 171° |
| 2026-04-29 18:41 | -17.58043 | -70.51643 | 33009 ft | 484 kts | 171° |
| 2026-04-29 18:42 | -17.64597 | -70.50237 | 33007 ft | 484 kts | 171° |
| 2026-04-29 18:42 | -17.71225 | -70.48813 | 32989 ft | 485 kts | 171° |
| 2026-04-29 18:43 | -17.77809 | -70.47398 | 32974 ft | 484 kts | 171° |
| 2026-04-29 18:43 | -17.84443 | -70.45971 | 32968 ft | 485 kts | 171° |
| 2026-04-29 18:44 | -17.91059 | -70.44547 | 32967 ft | 485 kts | 171° |
| 2026-04-29 18:44 | -17.97635 | -70.43130 | 32966 ft | 485 kts | 171° |
| 2026-04-29 18:45 | -18.04231 | -70.41708 | 32970 ft | 485 kts | 171° |
| 2026-04-29 18:45 | -18.10841 | -70.40282 | 32969 ft | 484 kts | 171° |
| 2026-04-29 18:46 | -18.17439 | -70.38857 | 32963 ft | 484 kts | 171° |
| 2026-04-29 18:46 | -18.24026 | -70.37434 | 32958 ft | 484 kts | 171° |
| 2026-04-29 18:47 | -18.30639 | -70.36004 | 32961 ft | 483 kts | 171° |
| 2026-04-29 18:47 | -18.37222 | -70.34643 | 32957 ft | 482 kts | 176° |
| 2026-04-29 18:48 | -18.43900 | -70.33894 | 32955 ft | 481 kts | 176° |
| 2026-04-29 18:48 | -18.50560 | -70.33061 | 32964 ft | 481 kts | 176° |
| 2026-04-29 18:49 | -18.57173 | -70.32219 | 32963 ft | 480 kts | 176° |
| 2026-04-29 18:49 | -18.63790 | -70.31376 | 32962 ft | 480 kts | 176° |
| 2026-04-29 18:50 | -18.70389 | -70.30534 | 32955 ft | 479 kts | 176° |
| 2026-04-29 18:50 | -18.77037 | -70.29685 | 32959 ft | 479 kts | 177° |
| 2026-04-29 18:51 | -18.83641 | -70.28841 | 32959 ft | 478 kts | 177° |
| 2026-04-29 18:51 | -18.90221 | -70.28000 | 32961 ft | 478 kts | 177° |
| 2026-04-29 18:52 | -18.96813 | -70.27156 | 32981 ft | 477 kts | 177° |
| 2026-04-29 18:52 | -19.03431 | -70.26308 | 32983 ft | 476 kts | 177° |
| 2026-04-29 18:53 | -19.10018 | -70.25464 | 32980 ft | 476 kts | 177° |
| 2026-04-29 18:53 | -19.16544 | -70.24627 | 32991 ft | 476 kts | 177° |
| 2026-04-29 18:54 | -19.23112 | -70.23784 | 32979 ft | 475 kts | 178° |
| 2026-04-29 18:54 | -19.29667 | -70.22941 | 32981 ft | 474 kts | 178° |
| 2026-04-29 18:55 | -19.36181 | -70.22104 | 33005 ft | 473 kts | 178° |
| 2026-04-29 18:55 | -19.42751 | -70.21297 | 32983 ft | 471 kts | 183° |
| 2026-04-29 18:56 | -19.49294 | -70.21277 | 32979 ft | 468 kts | 185° |
| 2026-04-29 18:56 | -19.55746 | -70.21295 | 32998 ft | 467 kts | 185° |
| 2026-04-29 18:57 | -19.62292 | -70.21318 | 32994 ft | 466 kts | 186° |
| 2026-04-29 18:57 | -19.68755 | -70.21341 | 32997 ft | 467 kts | 186° |
| 2026-04-29 18:58 | -19.75233 | -70.21363 | 32995 ft | 466 kts | 186° |
| 2026-04-29 18:58 | -19.81757 | -70.21387 | 32986 ft | 466 kts | 186° |
| 2026-04-29 18:59 | -19.88220 | -70.21410 | 32983 ft | 466 kts | 186° |
| 2026-04-29 18:59 | -19.94694 | -70.21432 | 32977 ft | 465 kts | 186° |
| 2026-04-29 19:00 | -20.01159 | -70.21455 | 32982 ft | 466 kts | 186° |
| 2026-04-29 19:00 | -20.07637 | -70.21478 | 32976 ft | 465 kts | 186° |
| 2026-04-29 19:01 | -20.14117 | -70.21501 | 32972 ft | 465 kts | 186° |
| 2026-04-29 19:01 | -20.20604 | -70.21523 | 32972 ft | 465 kts | 186° |
| 2026-04-29 19:02 | -20.26015 | -70.21543 | 32974 ft | 465 kts | 186° |
| 2026-04-29 19:02 | -20.33562 | -70.21569 | 32971 ft | 465 kts | 186° |
| 2026-04-29 19:03 | -20.39996 | -70.21592 | 32973 ft | 465 kts | 186° |
| 2026-04-29 19:03 | -20.46495 | -70.21616 | 32963 ft | 464 kts | 186° |
| 2026-04-29 19:04 | -20.52945 | -70.21639 | 32965 ft | 463 kts | 185° |
| 2026-04-29 19:04 | -20.59362 | -70.21663 | 32959 ft | 463 kts | 185° |
| 2026-04-29 19:05 | -20.65768 | -70.21685 | 32968 ft | 463 kts | 185° |
| 2026-04-29 19:05 | -20.68999 | -70.21698 | 33107 ft | 464 kts | 186° |
| 2026-04-29 19:05 | -20.72225 | -70.21709 | 33447 ft | 463 kts | 186° |
| 2026-04-29 19:06 | -20.75412 | -70.21721 | 33739 ft | 463 kts | 186° |
| 2026-04-29 19:06 | -20.78644 | -70.21733 | 33892 ft | 466 kts | 186° |
| 2026-04-29 19:06 | -20.85154 | -70.21757 | 34352 ft | 468 kts | 186° |
| 2026-04-29 19:07 | -20.88422 | -70.21768 | 34546 ft | 470 kts | 186° |
| 2026-04-29 19:07 | -20.90588 | -70.21776 | 34683 ft | 471 kts | 186° |
| 2026-04-29 19:07 | -20.94983 | -70.21792 | 34971 ft | 473 kts | 186° |
| 2026-04-29 19:07 | -20.98281 | -70.21804 | 35184 ft | 474 kts | 186° |
| 2026-04-29 19:08 | -21.01580 | -70.21815 | 35420 ft | 474 kts | 186° |
| 2026-04-29 19:08 | -21.04883 | -70.21826 | 35618 ft | 475 kts | 186° |
| 2026-04-29 19:08 | -21.08188 | -70.21838 | 35825 ft | 476 kts | 186° |
| 2026-04-29 19:08 | -21.11502 | -70.21848 | 36056 ft | 476 kts | 186° |
| 2026-04-29 19:09 | -21.14819 | -70.21860 | 36245 ft | 477 kts | 186° |
| 2026-04-29 19:09 | -21.18101 | -70.21871 | 36424 ft | 477 kts | 186° |
| 2026-04-29 19:09 | -21.21426 | -70.21882 | 36591 ft | 478 kts | 186° |
| 2026-04-29 19:09 | -21.24763 | -70.21893 | 36764 ft | 479 kts | 187° |
| 2026-04-29 19:10 | -21.28096 | -70.21904 | 36953 ft | 478 kts | 187° |
| 2026-04-29 19:10 | -21.34751 | -70.21926 | 36996 ft | 477 kts | 187° |
| 2026-04-29 19:11 | -21.41362 | -70.21948 | 37020 ft | 472 kts | 187° |
| 2026-04-29 19:11 | -21.47911 | -70.21971 | 37019 ft | 469 kts | 187° |
| 2026-04-29 19:12 | -21.54440 | -70.21993 | 37027 ft | 469 kts | 187° |
| 2026-04-29 19:12 | -21.60934 | -70.22015 | 37035 ft | 469 kts | 187° |
| 2026-04-29 19:13 | -21.67492 | -70.22037 | 37052 ft | 468 kts | 187° |
| 2026-04-29 19:13 | -21.73958 | -70.22059 | 37054 ft | 468 kts | 187° |
| 2026-04-29 19:14 | -21.80506 | -70.22082 | 37063 ft | 468 kts | 187° |
| 2026-04-29 19:14 | -21.87008 | -70.22103 | 37072 ft | 468 kts | 187° |
| 2026-04-29 19:15 | -21.93400 | -70.22773 | 37096 ft | 460 kts | 195° |
| 2026-04-29 19:15 | -21.99709 | -70.23744 | 37102 ft | 459 kts | 195° |
| 2026-04-29 19:16 | -22.06027 | -70.24735 | 37074 ft | 459 kts | 196° |
| 2026-04-29 19:16 | -22.12358 | -70.25730 | 37080 ft | 459 kts | 196° |
| 2026-04-29 19:17 | -22.18689 | -70.26726 | 37077 ft | 459 kts | 195° |
| 2026-04-29 19:17 | -22.24979 | -70.27717 | 37083 ft | 459 kts | 195° |
| 2026-04-29 19:18 | -22.31294 | -70.28713 | 37080 ft | 458 kts | 195° |
| 2026-04-29 19:18 | -22.37637 | -70.29713 | 37080 ft | 458 kts | 195° |
| 2026-04-29 19:19 | -22.43932 | -70.30707 | 37073 ft | 458 kts | 195° |
| 2026-04-29 19:19 | -22.50228 | -70.31702 | 37067 ft | 458 kts | 195° |
| 2026-04-29 19:20 | -22.56501 | -70.32695 | 37073 ft | 458 kts | 195° |
| 2026-04-29 19:20 | -22.62827 | -70.33696 | 37061 ft | 457 kts | 195° |
| 2026-04-29 19:21 | -22.69099 | -70.34691 | 37057 ft | 457 kts | 195° |
| 2026-04-29 19:21 | -22.72239 | -70.35188 | 37042 ft | 456 kts | 195° |